sensor_id;sensor_type;location;lat;lon;timestamp;pressure;altitude;pressure_sealevel;temperature;humidity
67434;BME280;54305;47.950;6.572;2022-07-18T20:06:39;94714.78;;;27.89;26.70
67434;BME280;54305;47.950;6.572;2022-07-18T20:09:04;94711.06;;;27.90;26.84
67434;BME280;54305;47.950;6.572;2022-07-18T20:11:30;94714.34;;;28.02;26.15
67434;BME280;54305;47.950;6.572;2022-07-18T20:16:16;94700.16;;;25.78;28.52
67434;BME280;54305;47.950;6.572;2022-07-18T20:18:41;94721.19;;;25.58;28.69
67434;BME280;54305;47.950;6.572;2022-07-18T20:21:07;94701.63;;;25.36;29.39
67434;BME280;54305;47.950;6.572;2022-07-18T20:23:32;94703.75;;;25.34;28.60
67434;BME280;54305;47.950;6.572;2022-07-18T20:25:58;94713.03;;;25.48;29.23
67434;BME280;54305;47.950;6.572;2022-07-18T20:28:23;94705.69;;;25.55;28.73
67434;BME280;54305;47.950;6.572;2022-07-18T20:30:49;94724.44;;;25.60;29.06
67434;BME280;54305;47.950;6.572;2022-07-18T20:33:14;94711.91;;;25.44;28.83
67434;BME280;54305;47.950;6.572;2022-07-18T20:35:41;94708.28;;;25.50;28.71
67434;BME280;54305;47.950;6.572;2022-07-18T20:38:06;94727.19;;;25.49;29.26
67434;BME280;54305;47.950;6.572;2022-07-18T20:40:34;94720.34;;;25.25;29.10
67434;BME280;54305;47.950;6.572;2022-07-18T20:43:00;94703.94;;;25.16;28.56
67434;BME280;54305;47.950;6.572;2022-07-18T20:45:25;94707.38;;;25.28;28.62
67434;BME280;54305;47.950;6.572;2022-07-18T20:47:55;94709.91;;;25.23;29.38
67434;BME280;54305;47.950;6.572;2022-07-18T20:50:20;94703.19;;;25.04;29.64
67434;BME280;54305;47.950;6.572;2022-07-18T20:52:46;94697.22;;;24.97;29.34
67434;BME280;54305;47.950;6.572;2022-07-18T20:55:14;94696.44;;;24.85;29.18
67434;BME280;54305;47.950;6.572;2022-07-18T20:57:39;94703.81;;;24.78;29.90
67434;BME280;54305;47.950;6.572;2022-07-18T21:00:06;94707.78;;;24.64;30.35
67434;BME280;54305;47.950;6.572;2022-07-18T21:02:33;94710.69;;;24.51;30.64
67434;BME280;54305;47.950;6.572;2022-07-18T21:04:58;94709.09;;;24.50;30.78
67434;BME280;54305;47.950;6.572;2022-07-18T21:07:24;94700.25;;;24.33;31.16
67434;BME280;54305;47.950;6.572;2022-07-18T21:09:49;94702.19;;;24.38;30.72
67434;BME280;54305;47.950;6.572;2022-07-18T21:12:15;94697.47;;;24.28;31.20
67434;BME280;54305;47.950;6.572;2022-07-18T21:14:41;94707.19;;;24.34;31.24
67434;BME280;54305;47.950;6.572;2022-07-18T21:17:25;94695.06;;;24.27;30.68
67434;BME280;54305;47.950;6.572;2022-07-18T21:19:51;94706.34;;;24.34;31.46
67434;BME280;54305;47.950;6.572;2022-07-18T21:22:17;94706.84;;;24.31;30.89
67434;BME280;54305;47.950;6.572;2022-07-18T21:24:42;94698.78;;;24.14;31.20
67434;BME280;54305;47.950;6.572;2022-07-18T21:27:08;94704.66;;;24.16;31.63
67434;BME280;54305;47.950;6.572;2022-07-18T21:29:33;94710.25;;;24.03;32.31
67434;BME280;54305;47.950;6.572;2022-07-18T21:31:59;94699.03;;;23.90;32.20
67434;BME280;54305;47.950;6.572;2022-07-18T21:34:24;94701.13;;;23.88;32.40
67434;BME280;54305;47.950;6.572;2022-07-18T21:36:50;94700.63;;;23.79;32.67
67434;BME280;54305;47.950;6.572;2022-07-18T21:39:15;94694.97;;;23.87;32.44
67434;BME280;54305;47.950;6.572;2022-07-18T21:41:40;94696.03;;;23.86;32.74
67434;BME280;54305;47.950;6.572;2022-07-18T21:44:06;94705.41;;;23.77;32.85
67434;BME280;54305;47.950;6.572;2022-07-18T21:46:31;94699.41;;;23.70;33.22
67434;BME280;54305;47.950;6.572;2022-07-18T21:48:57;94699.28;;;23.65;33.68
67434;BME280;54305;47.950;6.572;2022-07-18T21:51:26;94698.44;;;23.30;34.90
67434;BME280;54305;47.950;6.572;2022-07-18T21:53:52;94686.91;;;23.36;34.85
67434;BME280;54305;47.950;6.572;2022-07-18T21:56:17;94694.75;;;23.31;35.37
67434;BME280;54305;47.950;6.572;2022-07-18T21:58:43;94692.09;;;23.31;34.95
67434;BME280;54305;47.950;6.572;2022-07-18T22:01:08;94681.31;;;23.26;35.55
67434;BME280;54305;47.950;6.572;2022-07-18T22:03:34;94686.19;;;23.29;34.95
67434;BME280;54305;47.950;6.572;2022-07-18T22:05:59;94680.44;;;23.32;34.75
67434;BME280;54305;47.950;6.572;2022-07-18T22:08:24;94680.19;;;23.22;35.08
67434;BME280;54305;47.950;6.572;2022-07-18T22:10:50;94683.41;;;23.24;35.03
67434;BME280;54305;47.950;6.572;2022-07-18T22:13:15;94686.31;;;23.23;35.57
67434;BME280;54305;47.950;6.572;2022-07-18T22:15:41;94688.28;;;23.27;35.23
67434;BME280;54305;47.950;6.572;2022-07-18T22:18:06;94678.56;;;23.21;35.59
67434;BME280;54305;47.950;6.572;2022-07-18T22:20:32;94691.69;;;23.16;35.86
67434;BME280;54305;47.950;6.572;2022-07-18T22:22:57;94685.59;;;23.16;36.07
67434;BME280;54305;47.950;6.572;2022-07-18T22:25:23;94681.53;;;23.13;36.24
67434;BME280;54305;47.950;6.572;2022-07-18T22:27:49;94677.81;;;23.03;36.05
67434;BME280;54305;47.950;6.572;2022-07-18T22:30:14;94678.94;;;22.95;36.68
67434;BME280;54305;47.950;6.572;2022-07-18T22:32:40;94677.44;;;22.88;36.58
67434;BME280;54305;47.950;6.572;2022-07-18T22:35:06;94666.38;;;22.91;36.54
67434;BME280;54305;47.950;6.572;2022-07-18T22:37:32;94670.59;;;22.80;36.85
67434;BME280;54305;47.950;6.572;2022-07-18T22:39:58;94666.13;;;22.81;36.77
67434;BME280;54305;47.950;6.572;2022-07-18T22:42:23;94664.13;;;22.76;36.70
67434;BME280;54305;47.950;6.572;2022-07-18T22:44:49;94671.97;;;22.71;37.43
67434;BME280;54305;47.950;6.572;2022-07-18T22:47:14;94659.25;;;22.73;37.08
67434;BME280;54305;47.950;6.572;2022-07-18T22:49:40;94660.91;;;22.74;36.71
67434;BME280;54305;47.950;6.572;2022-07-18T22:52:06;94663.47;;;22.92;35.61
67434;BME280;54305;47.950;6.572;2022-07-18T22:54:32;94654.59;;;22.98;35.98
67434;BME280;54305;47.950;6.572;2022-07-18T22:56:57;94661.19;;;23.07;35.47
67434;BME280;54305;47.950;6.572;2022-07-18T22:59:23;94661.06;;;23.14;35.10
67434;BME280;54305;47.950;6.572;2022-07-18T23:01:49;94663.75;;;23.25;34.98
67434;BME280;54305;47.950;6.572;2022-07-18T23:04:14;94663.50;;;23.15;35.20
67434;BME280;54305;47.950;6.572;2022-07-18T23:06:40;94660.94;;;23.09;35.45
67434;BME280;54305;47.950;6.572;2022-07-18T23:09:05;94660.72;;;23.10;34.83
67434;BME280;54305;47.950;6.572;2022-07-18T23:11:31;94658.34;;;23.20;34.95
67434;BME280;54305;47.950;6.572;2022-07-18T23:13:56;94658.78;;;23.17;35.24
67434;BME280;54305;47.950;6.572;2022-07-18T23:16:22;94651.47;;;23.13;35.01
67434;BME280;54305;47.950;6.572;2022-07-18T23:18:47;94649.31;;;23.10;35.22
67434;BME280;54305;47.950;6.572;2022-07-18T23:21:13;94649.53;;;23.08;35.63
67434;BME280;54305;47.950;6.572;2022-07-18T23:23:38;94642.94;;;22.99;35.76
67434;BME280;54305;47.950;6.572;2022-07-18T23:26:03;94644.28;;;22.90;36.04
67434;BME280;54305;47.950;6.572;2022-07-18T23:28:29;94643.59;;;22.83;36.02
67434;BME280;54305;47.950;6.572;2022-07-18T23:30:54;94645.22;;;22.84;36.04
67434;BME280;54305;47.950;6.572;2022-07-18T23:33:20;94641.25;;;22.75;36.84
67434;BME280;54305;47.950;6.572;2022-07-18T23:35:46;94634.88;;;22.65;36.91
67434;BME280;54305;47.950;6.572;2022-07-18T23:38:11;94640.88;;;22.60;36.76
67434;BME280;54305;47.950;6.572;2022-07-18T23:40:37;94634.78;;;22.71;36.19
67434;BME280;54305;47.950;6.572;2022-07-18T23:43:02;94626.94;;;22.76;35.91
67434;BME280;54305;47.950;6.572;2022-07-18T23:45:27;94627.91;;;22.93;35.62
67434;BME280;54305;47.950;6.572;2022-07-18T23:47:53;94630.69;;;22.98;35.48
67434;BME280;54305;47.950;6.572;2022-07-18T23:50:18;94626.75;;;22.89;36.12
67434;BME280;54305;47.950;6.572;2022-07-18T23:52:45;94616.56;;;22.86;35.54
67434;BME280;54305;47.950;6.572;2022-07-18T23:55:13;94630.69;;;22.98;35.35
67434;BME280;54305;47.950;6.572;2022-07-18T23:57:39;94623.50;;;22.87;35.72
